Impacts TAF Board INFO
FOR SITUATIONAL AWARENESS. NOT TO BE USED FOR FLIGHT PLANNING PURPOSES.
IDs:

KMCB - McComb/Lewis Fld, MS, US

Issued at 0537 UTC 20 Jan 2018
Updated at 0918 UTC 20 Jan 2018
Potential Impact None Slight Moderate High
Time0853Z 20/10Z 20/11Z 20/12Z 20/13Z 20/14Z 20/15Z 20/16Z 20/17Z 20/18Z 20/19Z 20/20Z 20/21Z 20/22Z>>
Type OBS PRVL PRVL PRVL PRVL PRVL PRVL PRVL PRVL PRVL PRVL PRVL PRVL PRVL
VIS 10 >6 >6 >6 >6 >6 >6 >6 >6 >6 >6 >6 >6 >6
CIG -- 60 60 60 60 90 90 90 90 60 60 60 60 60
Cover CLR OVC OVC OVC OVC BKN BKN BKN BKN BKN BKN BKN BKN BKN
FltCat VFR VFR VFR VFR VFR VFR VFR VFR VFR VFR VFR VFR VFR VFR
WX -- -- -- -- -- -- -- -- -- -- -- -- -- --
WDir 150 170 170 170 170 140 140 140 140 160 160 160 160 160
WSpd 4 3 3 3 3 4 4 4 4 8 8 8 8 8
WGst -- -- -- -- -- -- -- -- -- -- -- -- -- --

Raw TAF
KMCB 200537Z 2006/2106 17003KT P6SM OVC060
  FM201400 14004KT P6SM BKN090
  FM201800 16008KT P6SM BKN060
  FM210100 15006KT P6SM SCT050


Raw METAR
KMCB 200853Z AUTO 15004KT 10SM CLR 07/M04 A3021 RMK AO2 SLP229 T00671039 56009
KMCB 200753Z AUTO 00000KT 10SM CLR 07/M04 A3022 RMK AO2 SLP232 T00671039
KMCB 200653Z AUTO 14004KT 10SM SCT065 06/M03 A3022 RMK AO2 SLP232 T00611028

METAR Board
Radar Display
Forecast Discussion

FOR SITUATIONAL AWARENESS. NOT TO BE USED FOR FLIGHT PLANNING PURPOSES.